createdAt,value
2019-01-26T00:01:47.623Z,84.80
2019-01-26T00:04:17.798Z,84.83
2019-01-26T00:06:47.537Z,84.70
2019-01-26T00:09:17.132Z,85.12
2019-01-26T00:11:46.861Z,84.95
2019-01-26T00:14:16.248Z,85.22
2019-01-26T00:16:45.632Z,85.02
2019-01-26T00:19:15.816Z,84.94
2019-01-26T00:21:45.387Z,84.67
2019-01-26T00:24:14.345Z,84.52
2019-01-26T00:26:43.280Z,84.63
2019-01-26T00:29:13.657Z,84.86
2019-01-26T00:31:43.018Z,84.46
2019-01-26T00:34:12.689Z,84.81
2019-01-26T00:36:41.691Z,84.57
2019-01-26T00:39:11.431Z,84.22
2019-01-26T00:41:40.310Z,84.35
2019-01-26T00:44:10.411Z,84.66
2019-01-26T00:46:40.159Z,84.40
2019-01-26T00:49:09.519Z,84.53
2019-01-26T00:51:39.537Z,84.74
2019-01-26T00:54:10.186Z,84.70
2019-01-26T00:56:39.876Z,84.64
2019-01-26T00:59:09.577Z,84.57
2019-01-26T01:01:38.847Z,84.69
2019-01-26T01:04:08.394Z,84.59
2019-01-26T01:06:38.042Z,84.70
2019-01-26T01:09:09.781Z,84.68
2019-01-26T01:11:39.759Z,84.66
2019-01-26T01:14:09.281Z,84.69
2019-01-26T01:16:39.001Z,84.87
2019-01-26T01:19:08.741Z,84.86
2019-01-26T01:21:38.483Z,84.85
2019-01-26T01:24:07.754Z,84.90
2019-01-26T01:26:36.673Z,84.60
2019-01-26T01:29:06.366Z,85.02
2019-01-26T01:31:35.896Z,85.34
2019-01-26T01:34:07.488Z,85.29
2019-01-26T01:36:39.868Z,85.37
2019-01-26T01:39:12.295Z,85.37
2019-01-26T01:41:44.442Z,85.25
2019-01-26T01:44:14.119Z,85.43
2019-01-26T01:46:43.629Z,85.33
2019-01-26T01:49:13.232Z,85.25
2019-01-26T01:51:42.962Z,85.21
2019-01-26T01:54:15.234Z,85.29
2019-01-26T01:56:46.114Z,85.26
2019-01-26T01:59:34.339Z,85.29
2019-01-26T02:02:02.978Z,85.42
2019-01-26T02:04:32.523Z,85.39
2019-01-26T02:07:01.145Z,85.51
2019-01-26T02:09:29.709Z,85.53
2019-01-26T02:11:58.621Z,85.48
2019-01-26T02:14:27.193Z,85.19
2019-01-26T02:16:56.476Z,85.06
2019-01-26T02:19:25.113Z,85.12
2019-01-26T02:21:54.681Z,85.44
2019-01-26T02:24:23.209Z,85.18
2019-01-26T02:26:51.754Z,85.47
2019-01-26T02:29:20.664Z,85.53
2019-01-26T02:31:50.210Z,85.41
2019-01-26T02:34:19.765Z,85.68
2019-01-26T02:36:48.973Z,85.27
2019-01-26T02:39:17.581Z,85.47
2019-01-26T02:41:46.844Z,85.18
2019-01-26T02:44:16.254Z,85.54
2019-01-26T02:46:45.467Z,85.57
2019-01-26T02:49:14.391Z,85.29
2019-01-26T02:51:44.040Z,85.44
2019-01-26T02:54:12.981Z,85.39
2019-01-26T02:56:42.225Z,85.45
2019-01-26T02:59:11.528Z,85.63
2019-01-26T03:01:40.457Z,85.43
2019-01-26T03:04:09.650Z,85.66
2019-01-26T03:06:38.876Z,85.39
2019-01-26T03:09:09.331Z,85.71
2019-01-26T03:11:37.866Z,85.49
2019-01-26T03:14:06.408Z,85.68
2019-01-26T03:16:34.973Z,85.67
2019-01-26T03:19:03.517Z,85.54
2019-01-26T03:21:32.781Z,85.85
2019-01-26T03:24:01.349Z,85.88
2019-01-26T03:26:30.571Z,85.77
2019-01-26T03:28:59.103Z,85.79
2019-01-26T03:31:27.679Z,85.86
2019-01-26T03:33:56.252Z,85.62
2019-01-26T03:36:24.788Z,85.87
2019-01-26T03:38:54.735Z,85.67
2019-01-26T03:41:23.381Z,85.66
2019-01-26T03:43:51.923Z,85.85
2019-01-26T03:46:20.462Z,85.74
2019-01-26T03:48:49.039Z,85.61
2019-01-26T03:51:17.575Z,85.82
2019-01-26T03:53:46.110Z,85.86
2019-01-26T03:56:14.698Z,86.72
2019-01-26T03:58:43.289Z,85.99
2019-01-26T04:01:11.826Z,85.90
2019-01-26T04:03:40.395Z,85.93
2019-01-26T04:06:09.002Z,86.21
2019-01-26T04:08:37.550Z,86.11
2019-01-26T04:11:06.123Z,86.18
2019-01-26T04:13:34.671Z,85.99
2019-01-26T04:16:03.257Z,86.17
2019-01-26T04:18:31.808Z,86.50
2019-01-26T04:21:00.350Z,86.36
2019-01-26T04:23:28.911Z,85.98
2019-01-26T04:25:57.455Z,85.91
2019-01-26T04:28:26.034Z,85.81
2019-01-26T04:30:54.574Z,85.72
2019-01-26T04:33:23.121Z,86.58
2019-01-26T04:35:51.704Z,86.16
2019-01-26T04:38:20.252Z,86.21
2019-01-26T04:40:49.146Z,86.07
2019-01-26T04:43:17.714Z,86.93
2019-01-26T04:45:46.297Z,87.08
2019-01-26T04:48:14.835Z,86.90
2019-01-26T04:50:43.461Z,87.54
2019-01-26T04:53:12.044Z,86.99
2019-01-26T04:55:40.582Z,87.71
2019-01-26T04:58:09.130Z,87.57
2019-01-26T05:00:37.709Z,87.50
2019-01-26T05:03:06.285Z,87.51
2019-01-26T05:05:34.891Z,87.66
2019-01-26T05:08:03.445Z,87.45
2019-01-26T05:10:31.982Z,86.88
2019-01-26T05:13:00.542Z,86.96
2019-01-26T05:15:29.109Z,86.68
2019-01-26T05:17:57.673Z,87.12
2019-01-26T05:20:26.560Z,86.98
2019-01-26T05:22:55.143Z,87.35
2019-01-26T05:25:23.688Z,87.92
2019-01-26T05:27:52.217Z,87.35
2019-01-26T05:30:23.001Z,87.26
2019-01-26T05:32:51.576Z,87.67
2019-01-26T05:35:20.131Z,88.08
2019-01-26T05:37:48.683Z,87.83
2019-01-26T05:40:17.328Z,87.62
2019-01-26T05:42:45.876Z,88.22
2019-01-26T05:45:17.368Z,88.06
2019-01-26T05:47:48.594Z,88.14
2019-01-26T05:50:20.137Z,87.92
2019-01-26T05:52:48.746Z,87.41
2019-01-26T05:55:18.349Z,86.99
2019-01-26T05:57:47.575Z,87.62
2019-01-26T06:00:21.670Z,88.22
2019-01-26T06:02:50.584Z,88.48
2019-01-26T06:05:19.243Z,88.25
2019-01-26T06:07:50.022Z,88.21
2019-01-26T06:10:18.762Z,87.44
2019-01-26T06:12:47.331Z,87.14
2019-01-26T06:15:16.043Z,87.00
2019-01-26T06:17:44.613Z,86.75
2019-01-26T06:20:13.311Z,86.46
2019-01-26T06:22:41.961Z,86.76
2019-01-26T06:25:12.522Z,86.33
2019-01-26T06:27:41.019Z,85.61
2019-01-26T06:30:13.193Z,85.72
2019-01-26T06:32:41.765Z,85.72
2019-01-26T06:35:10.303Z,85.59
2019-01-26T06:37:39.225Z,85.31
2019-01-26T06:40:10.717Z,85.00
2019-01-26T06:42:39.568Z,85.23
2019-01-26T06:45:09.760Z,85.05
2019-01-26T06:47:39.023Z,85.61
2019-01-26T06:50:10.894Z,85.42
2019-01-26T06:52:39.464Z,85.18
2019-01-26T06:55:09.627Z,85.43
2019-01-26T06:57:38.189Z,85.29
2019-01-26T07:00:09.941Z,85.44
2019-01-26T07:02:39.134Z,85.60
2019-01-26T07:05:30.665Z,85.45
2019-01-26T07:07:59.632Z,85.37
2019-01-26T07:10:28.602Z,85.49
2019-01-26T07:13:11.731Z,85.41
2019-01-26T07:15:39.933Z,85.77
2019-01-26T07:18:09.518Z,85.28
2019-01-26T07:20:38.451Z,85.02
2019-01-26T07:23:07.795Z,85.46
2019-01-26T07:25:37.159Z,85.49
2019-01-26T07:28:06.013Z,85.53
2019-01-26T07:30:34.907Z,85.40
2019-01-26T07:33:03.485Z,85.30
2019-01-26T07:35:32.015Z,85.59
2019-01-26T07:38:00.549Z,85.76
2019-01-26T07:40:29.466Z,85.54
2019-01-26T07:42:58.033Z,85.38
2019-01-26T07:45:26.916Z,84.86
2019-01-26T07:47:55.452Z,85.06
2019-01-26T07:50:24.090Z,84.97
2019-01-26T07:52:52.626Z,85.29
2019-01-26T07:55:21.162Z,84.88
2019-01-26T07:57:49.735Z,85.26
2019-01-26T08:00:20.576Z,85.21
2019-01-26T08:02:49.115Z,85.39
2019-01-26T08:05:17.724Z,85.52
2019-01-26T08:07:46.249Z,85.16
2019-01-26T08:10:17.375Z,85.48
2019-01-26T08:12:45.942Z,85.20
2019-01-26T08:15:16.797Z,84.90
2019-01-26T08:17:45.422Z,84.90
2019-01-26T08:20:16.018Z,85.00
2019-01-26T08:22:44.547Z,85.22
2019-01-26T08:25:13.173Z,84.96
2019-01-26T08:27:41.711Z,85.23
2019-01-26T08:30:21.775Z,85.19
2019-01-26T08:32:50.415Z,85.29
2019-01-26T08:35:19.189Z,85.53
2019-01-26T08:37:47.800Z,84.82
2019-01-26T08:40:17.404Z,85.32
2019-01-26T08:42:45.947Z,85.17
2019-01-26T08:45:14.901Z,85.28
2019-01-26T08:47:43.656Z,85.46
2019-01-26T08:50:17.367Z,85.31
2019-01-26T08:52:46.293Z,85.31
2019-01-26T08:55:18.279Z,85.53
2019-01-26T08:57:45.219Z,85.38
2019-01-26T09:00:19.695Z,85.25
2019-01-26T09:03:13.464Z,85.40
2019-01-26T09:05:57.141Z,85.42
2019-01-26T09:08:25.925Z,85.43
2019-01-26T09:10:54.818Z,85.22
2019-01-26T09:13:23.690Z,85.33
2019-01-26T09:15:52.271Z,85.02
2019-01-26T09:18:20.812Z,84.79
2019-01-26T09:20:49.367Z,84.94
2019-01-26T09:23:17.967Z,85.03
2019-01-26T09:25:46.551Z,84.68
2019-01-26T09:28:15.091Z,85.14
2019-01-26T09:30:43.630Z,85.50
2019-01-26T09:33:12.210Z,84.95
2019-01-26T09:35:40.754Z,85.55
2019-01-26T09:38:09.298Z,85.36
2019-01-26T09:40:37.855Z,85.11
2019-01-26T09:43:07.515Z,85.08
2019-01-26T09:45:36.095Z,84.77
2019-01-26T09:48:04.882Z,85.20
2019-01-26T09:50:33.427Z,84.88
2019-01-26T09:53:02.018Z,85.21
2019-01-26T09:55:30.586Z,85.07
2019-01-26T09:57:59.126Z,84.74
2019-01-26T10:00:27.725Z,84.69
2019-01-26T10:02:56.254Z,84.99
2019-01-26T10:05:24.801Z,85.02
2019-01-26T10:07:53.378Z,84.96
2019-01-26T10:10:22.307Z,84.84
2019-01-26T10:12:50.857Z,85.09
2019-01-26T10:15:19.787Z,84.43
2019-01-26T10:17:48.402Z,84.47
2019-01-26T10:20:22.382Z,84.75
2019-01-26T10:22:50.937Z,84.88
2019-01-26T10:25:19.514Z,84.58
2019-01-26T10:27:48.139Z,84.34
2019-01-26T10:30:21.677Z,84.37
2019-01-26T10:32:50.236Z,84.34
2019-01-26T10:35:19.464Z,84.19
2019-01-26T10:37:48.026Z,83.81
2019-01-26T10:40:39.474Z,84.30
2019-01-26T10:43:08.110Z,84.75
2019-01-26T10:45:36.838Z,84.16
2019-01-26T10:48:05.770Z,85.27
2019-01-26T10:50:34.343Z,84.95
2019-01-26T10:53:02.885Z,84.97
2019-01-26T10:55:31.526Z,85.04
2019-01-26T10:58:00.072Z,84.61
2019-01-26T11:00:29.000Z,84.86
2019-01-26T11:02:57.544Z,84.96
2019-01-26T11:05:26.080Z,84.57
2019-01-26T11:07:54.645Z,84.80
2019-01-26T11:10:23.251Z,84.90
2019-01-26T11:12:51.840Z,85.22
2019-01-26T11:15:20.383Z,85.42
2019-01-26T11:17:48.929Z,85.52
2019-01-26T11:20:17.491Z,85.47
2019-01-26T11:22:46.061Z,85.66
2019-01-26T11:25:14.670Z,85.18
2019-01-26T11:27:44.141Z,85.26
2019-01-26T11:30:12.777Z,85.13
2019-01-26T11:32:41.310Z,85.24
2019-01-26T11:35:11.086Z,85.36
2019-01-26T11:37:39.649Z,85.51
2019-01-26T11:40:16.483Z,85.42
2019-01-26T11:42:45.054Z,84.69
2019-01-26T11:45:38.515Z,85.01
2019-01-26T11:48:13.176Z,85.21
2019-01-26T11:50:44.817Z,85.43
2019-01-26T11:53:13.391Z,84.76
2019-01-26T11:55:50.739Z,84.92
2019-01-26T11:58:19.282Z,85.34
2019-01-26T12:01:06.874Z,85.35
2019-01-26T12:03:54.434Z,85.56
2019-01-26T12:06:27.039Z,85.78
2019-01-26T12:08:55.616Z,85.98
2019-01-26T12:11:24.221Z,86.06
2019-01-26T12:13:52.761Z,85.22
2019-01-26T12:16:26.884Z,85.41
2019-01-26T12:18:51.601Z,85.87
2019-01-26T12:21:20.149Z,85.84
2019-01-26T12:23:48.724Z,86.02
2019-01-26T12:26:17.267Z,85.68
2019-01-26T12:28:45.807Z,85.91
2019-01-26T12:31:14.380Z,86.08
2019-01-26T12:33:42.921Z,85.94
2019-01-26T12:36:11.505Z,86.03
2019-01-26T12:38:40.079Z,85.76
2019-01-26T12:41:08.622Z,85.87
2019-01-26T12:43:37.161Z,85.76
2019-01-26T12:46:05.744Z,85.23
2019-01-26T12:48:34.290Z,85.60
2019-01-26T12:51:02.829Z,84.83
2019-01-26T12:53:31.409Z,85.36
2019-01-26T12:55:59.945Z,85.15
2019-01-26T12:58:28.495Z,84.32
2019-01-26T13:00:57.064Z,84.92
2019-01-26T13:03:25.628Z,84.85
2019-01-26T13:05:54.171Z,84.84
2019-01-26T13:08:22.744Z,84.63
2019-01-26T13:10:54.723Z,84.67
2019-01-26T13:13:23.261Z,84.97
2019-01-26T13:15:51.827Z,84.50
2019-01-26T13:18:20.410Z,84.58
2019-01-26T13:20:48.956Z,84.04
2019-01-26T13:23:17.499Z,84.53
2019-01-26T13:25:46.065Z,85.14
2019-01-26T13:28:14.735Z,84.84
2019-01-26T13:30:43.290Z,84.63
2019-01-26T13:33:11.833Z,84.82
2019-01-26T13:35:40.408Z,84.84
2019-01-26T13:38:09.006Z,84.63
2019-01-26T13:40:37.605Z,85.15
2019-01-26T13:43:06.154Z,85.05
2019-01-26T13:45:34.700Z,85.36
2019-01-26T13:48:03.294Z,85.61
2019-01-26T13:50:31.847Z,85.35
2019-01-26T13:53:00.396Z,85.22
2019-01-26T13:55:28.980Z,85.06
2019-01-26T13:57:57.529Z,84.41
2019-01-26T14:00:28.528Z,84.53
2019-01-26T14:02:57.106Z,84.06
2019-01-26T14:05:25.673Z,84.46
2019-01-26T14:07:54.262Z,84.17
2019-01-26T14:10:22.840Z,84.16
2019-01-26T14:12:51.419Z,83.59
2019-01-26T14:15:20.015Z,83.82
2019-01-26T14:17:48.572Z,83.59
2019-01-26T14:20:19.251Z,83.46
2019-01-26T14:22:47.898Z,83.77
2019-01-26T14:25:16.648Z,84.03
2019-01-26T14:27:45.227Z,84.13
2019-01-26T14:30:22.930Z,84.79
2019-01-26T14:32:52.619Z,85.01
2019-01-26T14:35:21.451Z,85.32
2019-01-26T14:37:49.998Z,84.78
2019-01-26T14:40:18.608Z,85.79
2019-01-26T14:42:53.944Z,85.30
2019-01-26T14:45:17.510Z,85.97
2019-01-26T14:47:46.094Z,85.72
2019-01-26T14:50:14.772Z,86.13
2019-01-26T14:52:43.282Z,85.88
2019-01-26T14:55:14.535Z,85.68
2019-01-26T14:57:43.113Z,85.08
2019-01-26T15:00:21.293Z,85.59
2019-01-26T15:02:49.905Z,85.46
2019-01-26T15:05:18.457Z,85.80
2019-01-26T15:07:46.998Z,85.90
2019-01-26T15:10:15.586Z,85.65
2019-01-26T15:12:44.144Z,85.58
2019-01-26T15:15:12.743Z,86.04
2019-01-26T15:17:41.351Z,85.45
2019-01-26T15:20:13.447Z,85.16
2019-01-26T15:22:42.018Z,85.87
2019-01-26T15:25:10.602Z,85.20
2019-01-26T15:27:39.153Z,83.99
2019-01-26T15:30:15.909Z,84.29
2019-01-26T15:32:44.461Z,84.83
2019-01-26T15:35:13.046Z,84.51
2019-01-26T15:37:41.585Z,84.56
2019-01-26T15:40:10.280Z,84.51
2019-01-26T15:42:38.871Z,84.21
2019-01-26T15:45:11.177Z,84.20
2019-01-26T15:47:39.770Z,83.91
2019-01-26T15:50:13.143Z,84.38
2019-01-26T15:52:39.908Z,84.47
2019-01-26T15:55:11.248Z,84.29
2019-01-26T15:57:39.787Z,84.36
2019-01-26T16:00:12.460Z,84.81
2019-01-26T16:02:41.009Z,84.37
2019-01-26T16:05:09.590Z,84.63
2019-01-26T16:07:38.175Z,85.06
2019-01-26T16:10:07.516Z,85.46
2019-01-26T16:12:36.091Z,85.67
2019-01-26T16:15:05.792Z,85.17
2019-01-26T16:17:34.333Z,85.55
2019-01-26T16:20:02.951Z,86.11
2019-01-26T16:22:31.503Z,84.96
2019-01-26T16:25:00.057Z,85.40
2019-01-26T16:27:28.702Z,85.12
2019-01-26T16:29:57.278Z,84.47
2019-01-26T16:32:25.832Z,85.12
2019-01-26T16:34:54.416Z,85.54
2019-01-26T16:37:22.962Z,85.45
2019-01-26T16:39:51.514Z,84.14
2019-01-26T16:42:20.080Z,83.03
2019-01-26T16:44:48.622Z,82.23
2019-01-26T16:47:17.204Z,82.61
2019-01-26T16:49:45.754Z,82.42
2019-01-26T16:52:14.337Z,82.58
2019-01-26T16:54:42.899Z,82.72
2019-01-26T16:57:11.514Z,82.28
2019-01-26T16:59:40.095Z,82.22
2019-01-26T17:02:08.641Z,82.24
2019-01-26T17:04:37.185Z,82.12
2019-01-26T17:07:05.766Z,82.04
2019-01-26T17:09:34.306Z,81.42
2019-01-26T17:12:02.884Z,81.49
2019-01-26T17:14:31.478Z,82.16
2019-01-26T17:17:00.018Z,81.04
2019-01-26T17:19:28.621Z,81.52
2019-01-26T17:21:57.162Z,80.68
2019-01-26T17:24:25.708Z,80.95
2019-01-26T17:26:54.294Z,81.17
2019-01-26T17:29:22.843Z,81.64
2019-01-26T17:31:51.392Z,81.06
2019-01-26T17:34:19.980Z,80.91
2019-01-26T17:36:48.530Z,80.61
2019-01-26T17:39:17.073Z,81.34
2019-01-26T17:41:45.652Z,81.19
2019-01-26T17:44:14.515Z,81.25
2019-01-26T17:46:43.325Z,81.86
2019-01-26T17:49:12.499Z,82.48
2019-01-26T17:51:41.733Z,82.28
2019-01-26T17:54:10.288Z,83.30
2019-01-26T17:56:38.833Z,83.26
2019-01-26T17:59:07.408Z,83.98
2019-01-26T18:01:35.956Z,83.80
2019-01-26T18:04:04.498Z,84.04
2019-01-26T18:06:33.077Z,84.50
2019-01-26T18:09:01.669Z,84.04
2019-01-26T18:11:30.297Z,83.00
2019-01-26T18:13:58.841Z,83.66
2019-01-26T18:16:27.386Z,84.03
2019-01-26T18:18:55.972Z,83.50
2019-01-26T18:21:24.521Z,83.92
2019-01-26T18:23:53.091Z,83.54
2019-01-26T18:26:22.037Z,83.34
2019-01-26T18:28:50.585Z,83.06
2019-01-26T18:31:19.165Z,82.83
2019-01-26T18:33:47.718Z,83.69
2019-01-26T18:36:16.252Z,83.04
2019-01-26T18:38:44.831Z,83.14
2019-01-26T18:41:13.372Z,84.29
2019-01-26T18:43:41.946Z,84.90
2019-01-26T18:46:10.487Z,84.83
2019-01-26T18:48:39.354Z,83.87
2019-01-26T18:51:07.943Z,83.57
2019-01-26T18:53:36.480Z,83.96
2019-01-26T18:56:05.068Z,83.73
2019-01-26T18:58:33.599Z,84.42
2019-01-26T19:01:02.139Z,83.55
2019-01-26T19:03:41.631Z,84.07
2019-01-26T19:06:10.175Z,83.55
2019-01-26T19:08:38.719Z,84.49
2019-01-26T19:11:07.300Z,83.61
2019-01-26T19:13:35.867Z,83.95
2019-01-26T19:16:04.934Z,83.71
2019-01-26T19:18:33.517Z,85.00
2019-01-26T19:21:03.248Z,84.88
2019-01-26T19:23:32.188Z,85.14
2019-01-26T19:26:00.765Z,85.16
2019-01-26T19:28:29.305Z,85.29
2019-01-26T19:30:57.905Z,85.23
2019-01-26T19:33:26.452Z,84.40
2019-01-26T19:35:54.998Z,84.15
2019-01-26T19:38:23.581Z,84.54
2019-01-26T19:40:52.133Z,84.87
2019-01-26T19:43:20.709Z,85.13
2019-01-26T19:45:49.598Z,85.51
2019-01-26T19:48:18.211Z,85.35
2019-01-26T19:50:46.757Z,85.87
2019-01-26T19:53:15.301Z,85.69
2019-01-26T19:55:44.447Z,85.81
2019-01-26T19:58:13.071Z,85.81
2019-01-26T20:00:41.635Z,85.71
2019-01-26T20:03:10.209Z,85.74
2019-01-26T20:05:38.748Z,85.67
2019-01-26T20:08:07.622Z,85.53
2019-01-26T20:10:36.246Z,85.53
2019-01-26T20:13:04.853Z,85.37
2019-01-26T20:15:33.428Z,85.32
2019-01-26T20:18:01.970Z,85.56
2019-01-26T20:20:32.555Z,85.67
2019-01-26T20:23:01.097Z,84.78
2019-01-26T20:25:29.672Z,84.66
2019-01-26T20:27:58.218Z,84.98
2019-01-26T20:30:28.782Z,85.38
2019-01-26T20:32:57.513Z,85.46
2019-01-26T20:35:26.114Z,85.69
2019-01-26T20:37:54.740Z,85.48
2019-01-26T20:40:23.279Z,85.51
2019-01-26T20:42:51.853Z,85.40
2019-01-26T20:45:22.666Z,85.87
2019-01-26T20:47:51.205Z,85.66
2019-01-26T20:50:19.852Z,85.51
2019-01-26T20:52:48.427Z,85.25
2019-01-26T20:55:16.973Z,85.66
2019-01-26T20:57:45.517Z,85.71
2019-01-26T21:00:20.246Z,84.94
2019-01-26T21:02:48.819Z,85.09
2019-01-26T21:05:17.398Z,85.65
2019-01-26T21:07:45.940Z,85.39
2019-01-26T21:10:23.292Z,85.43
2019-01-26T21:12:51.963Z,85.46
2019-01-26T21:15:20.594Z,85.75
2019-01-26T21:17:49.152Z,86.03
2019-01-26T21:20:18.726Z,85.91
2019-01-26T21:22:47.317Z,85.97
2019-01-26T21:25:15.863Z,85.66
2019-01-26T21:27:44.406Z,85.77
2019-01-26T21:30:18.420Z,85.86
2019-01-26T21:32:46.985Z,86.06
2019-01-26T21:35:15.521Z,85.97
2019-01-26T21:37:44.181Z,85.78
2019-01-26T21:40:39.778Z,85.76
2019-01-26T21:43:08.351Z,85.92
2019-01-26T21:45:36.890Z,85.65
2019-01-26T21:48:05.460Z,85.55
2019-01-26T21:50:34.005Z,85.49
2019-01-26T21:53:02.542Z,85.76
2019-01-26T21:55:31.116Z,85.65
2019-01-26T21:57:59.680Z,85.43
2019-01-26T22:00:30.482Z,85.51
2019-01-26T22:02:59.023Z,85.22
2019-01-26T22:05:27.590Z,85.18
2019-01-26T22:07:56.130Z,85.20
2019-01-26T22:10:24.689Z,85.38
2019-01-26T22:12:53.255Z,85.05
2019-01-26T22:15:22.632Z,84.93
2019-01-26T22:17:51.203Z,84.70
2019-01-26T22:20:21.433Z,84.56
2019-01-26T22:22:50.139Z,84.39
2019-01-26T22:25:19.404Z,84.15
2019-01-26T22:27:47.977Z,84.11
2019-01-26T22:30:19.361Z,83.96
2019-01-26T22:32:47.909Z,84.15
2019-01-26T22:35:16.739Z,84.27
2019-01-26T22:37:45.841Z,84.28
2019-01-26T22:40:17.469Z,84.09
2019-01-26T22:42:46.044Z,84.32
2019-01-26T22:45:14.586Z,84.24
2019-01-26T22:47:43.123Z,84.30
2019-01-26T22:50:12.971Z,84.47
2019-01-26T22:52:41.625Z,84.35
2019-01-26T22:55:11.138Z,84.05
2019-01-26T22:57:39.710Z,84.40
2019-01-26T23:00:27.808Z,84.79
2019-01-26T23:02:56.392Z,85.25
2019-01-26T23:06:03.571Z,85.15
2019-01-26T23:08:32.152Z,85.03
2019-01-26T23:11:14.768Z,84.76
2019-01-26T23:14:52.180Z,84.10
2019-01-26T23:17:53.603Z,84.84
2019-01-26T23:20:41.206Z,85.04
2019-01-26T23:23:49.771Z,84.81
2019-01-26T23:26:47.901Z,84.83
2019-01-26T23:29:47.051Z,84.05
2019-01-26T23:32:15.584Z,84.27
2019-01-26T23:34:44.123Z,84.06
2019-01-26T23:37:12.689Z,84.31
2019-01-26T23:39:41.230Z,84.14
2019-01-26T23:42:10.098Z,84.41
2019-01-26T23:44:38.643Z,84.04
2019-01-26T23:47:07.223Z,84.47
2019-01-26T23:49:35.779Z,84.89
2019-01-26T23:52:04.350Z,84.68
2019-01-26T23:54:32.916Z,84.83
2019-01-26T23:57:01.459Z,84.35
2019-01-26T23:59:30.028Z,84.13
